Time;durP1;ratioP1;P1;durP2;ratioP2;P2;SDS_P1;SDS_P2;PMS_P1;PMS_P2;Temp;Humidity;BMP_temperature;BMP_pressure;BME280_temperature;BME280_humidity;BME280_pressure;Samples;Min_cycle;Max_cycle;Signal;HPM_P1;HPM_P2
2021/06/14 00:00:56;;;;;;;5.38;2.70;;;;;;;18.54;58.98;102012.72;4871709;29;20061;-84
2021/06/14 00:03:23;;;;;;;5.45;2.88;;;;;;;18.50;59.19;102005.84;4862513;29;20046;-82
2021/06/14 00:05:49;;;;;;;5.40;2.97;;;;;;;18.42;59.40;102000.13;4856543;29;20050;-84
2021/06/14 00:08:19;;;;;;;4.72;3.28;;;;;;;18.38;59.64;102009.13;4870985;29;20049;-85
2021/06/14 00:10:52;;;;;;;5.53;3.22;;;;;;;18.32;59.95;101997.09;4874602;29;20415;-82
2021/06/14 00:13:24;;;;;;;7.57;3.20;;;;;;;18.25;60.22;101995.69;4879436;29;20157;-83
2021/06/14 00:15:52;;;;;;;7.10;3.85;;;;;;;18.22;60.18;101988.78;4860233;29;20045;-82
2021/06/14 00:18:20;;;;;;;6.03;3.10;;;;;;;18.30;60.11;101990.19;4871105;29;20033;-84
2021/06/14 00:20:59;;;;;;;5.85;3.42;;;;;;;18.22;60.41;101978.19;4884539;29;20046;-82
2021/06/14 00:23:28;;;;;;;6.22;3.25;;;;;;;18.14;60.34;101975.06;4865133;29;20074;-83
2021/06/14 00:25:56;;;;;;;7.20;3.45;;;;;;;18.19;60.55;101974.84;4852311;29;20054;-84
2021/06/14 00:28:23;;;;;;;6.15;4.07;;;;;;;18.15;60.39;101968.88;4853343;29;20110;-84
2021/06/14 00:30:51;;;;;;;6.90;3.70;;;;;;;18.13;60.43;101960.16;4946018;23;20052;-80
2021/06/14 00:33:20;;;;;;;8.32;3.95;;;;;;;18.13;60.58;101964.59;4953040;28;20032;-81
2021/06/14 00:35:47;;;;;;;6.75;3.65;;;;;;;18.02;60.88;101952.75;4941806;29;20048;-85
2021/06/14 00:38:15;;;;;;;5.35;3.67;;;;;;;17.99;60.88;101949.41;4926413;29;20115;-85
2021/06/14 00:40:42;;;;;;;7.28;3.90;;;;;;;18.00;60.92;101930.00;4936223;29;20086;-85
2021/06/14 00:43:10;;;;;;;5.13;3.63;;;;;;;18.06;60.71;101937.59;4962874;29;20082;-84
2021/06/14 00:45:40;;;;;;;5.72;3.50;;;;;;;18.12;60.45;101936.44;4948473;29;20548;-85
2021/06/14 00:48:07;;;;;;;6.95;3.90;;;;;;;18.04;60.83;101932.41;4941406;29;20048;-84
2021/06/14 00:50:43;;;;;;;5.38;3.15;;;;;;;17.77;61.05;101902.88;4943477;29;20040;-84
2021/06/14 00:53:13;;;;;;;6.28;3.28;;;;;;;17.91;61.35;101947.13;4936336;29;20047;-84
2021/06/14 00:55:40;;;;;;;6.88;3.53;;;;;;;17.51;61.64;101878.63;4952412;29;20053;-83
2021/06/14 00:58:07;;;;;;;7.28;3.58;;;;;;;17.69;61.58;101910.34;4951261;29;20035;-84
2021/06/14 01:00:35;;;;;;;7.35;3.63;;;;;;;17.76;62.13;101938.19;4957551;29;20051;-84
2021/06/14 01:03:09;;;;;;;7.72;3.40;;;;;;;17.72;62.43;101937.47;4922602;29;20052;-85
2021/06/14 01:05:44;;;;;;;5.38;3.50;;;;;;;17.54;62.94;101918.09;4957254;23;20059;-85
2021/06/14 01:08:11;;;;;;;5.97;3.47;;;;;;;17.54;63.21;101935.69;4922045;29;20044;-86
2021/06/14 01:10:41;;;;;;;6.10;3.60;;;;;;;17.51;63.59;101934.06;4914758;29;20517;-85
2021/06/14 01:13:32;;;;;;;6.22;3.75;;;;;;;17.49;63.52;101927.13;4943616;29;20076;-86
2021/06/14 01:16:26;;;;;;;5.00;3.30;;;;;;;17.46;63.72;101924.66;4950711;29;20055;-85
2021/06/14 01:19:07;;;;;;;6.53;3.72;;;;;;;17.36;64.22;101925.09;4934928;29;20068;-84
2021/06/14 01:21:43;;;;;;;7.18;3.90;;;;;;;17.30;64.32;101922.75;4933828;29;20051;-86
2021/06/14 01:24:35;;;;;;;7.30;3.85;;;;;;;17.33;64.37;101925.22;4925703;29;20131;-83
2021/06/14 01:27:11;;;;;;;7.60;4.20;;;;;;;16.96;64.63;101879.47;4926965;29;20563;-85
2021/06/14 01:29:41;;;;;;;6.95;3.75;;;;;;;17.20;64.93;101919.69;4932173;29;20052;-86
2021/06/14 01:32:09;;;;;;;7.97;3.75;;;;;;;17.06;64.88;101901.00;4914269;29;20051;-84
2021/06/14 01:34:39;;;;;;;6.00;3.53;;;;;;;17.15;65.20;101916.41;4941587;29;20055;-85
2021/06/14 01:37:09;;;;;;;6.05;3.92;;;;;;;17.03;65.65;101916.94;4942862;29;20115;-81
2021/06/14 01:39:40;;;;;;;5.80;3.85;;;;;;;17.01;65.84;101919.66;4924401;29;20051;-86
2021/06/14 01:42:07;;;;;;;6.72;3.83;;;;;;;16.90;66.40;101911.34;4930199;29;20068;-86
2021/06/14 01:44:36;;;;;;;7.88;3.97;;;;;;;16.73;66.19;101888.41;4943860;29;20060;-85
2021/06/14 01:47:04;;;;;;;7.53;3.50;;;;;;;16.89;66.27;101913.13;4925652;29;20067;-85
2021/06/14 01:49:32;;;;;;;5.35;3.22;;;;;;;16.88;66.51;101911.44;4919607;29;20044;-86
2021/06/14 01:51:58;;;;;;;6.10;3.58;;;;;;;16.76;66.42;101882.97;4918680;29;20075;-83
2021/06/14 01:54:24;;;;;;;7.68;4.03;;;;;;;17.01;65.69;101910.91;4932763;29;20047;-82
2021/06/14 01:56:53;;;;;;;5.80;3.72;;;;;;;17.15;64.98;101918.16;4923699;29;20048;-84
2021/06/14 01:59:24;;;;;;;9.38;4.20;;;;;;;17.16;64.83;101909.34;4931599;29;20048;-77
2021/06/14 02:01:52;;;;;;;7.07;3.83;;;;;;;17.09;64.56;101906.97;4939979;29;20044;-76
2021/06/14 02:04:18;;;;;;;5.35;3.30;;;;;;;17.11;64.31;101913.06;4945822;29;20121;-83
2021/06/14 02:06:48;;;;;;;6.68;3.20;;;;;;;17.13;63.92;101891.88;4961927;29;20055;-83
2021/06/14 02:09:17;;;;;;;6.80;3.00;;;;;;;17.21;63.50;101891.50;4936712;29;20040;-81
2021/06/14 02:11:50;;;;;;;6.80;3.65;;;;;;;17.13;63.58;101895.34;4938059;29;20052;-82
2021/06/14 02:14:26;;;;;;;6.47;2.80;;;;;;;17.03;63.63;101890.56;4929050;29;20052;-82
2021/06/14 02:16:54;;;;;;;5.53;3.30;;;;;;;16.93;63.46;101867.28;4924856;29;20448;-85
2021/06/14 02:19:21;;;;;;;5.55;2.75;;;;;;;17.02;63.37;101873.06;4918705;29;20047;-85
2021/06/14 02:21:47;;;;;;;6.97;3.00;;;;;;;16.93;63.52;101858.50;4920036;29;20449;-81
2021/06/14 02:24:14;;;;;;;6.75;3.60;;;;;;;16.95;63.71;101873.34;4924691;29;20056;-85
2021/06/14 02:26:45;;;;;;;5.50;3.20;;;;;;;16.85;63.78;101852.72;4919992;29;20044;-84
2021/06/14 02:29:11;;;;;;;4.90;3.05;;;;;;;16.86;63.69;101838.59;4927328;29;20043;-78
2021/06/14 02:31:37;;;;;;;5.68;3.30;;;;;;;16.87;63.79;101854.34;4966572;29;20058;-84
2021/06/14 02:34:06;;;;;;;4.97;2.70;;;;;;;16.85;63.52;101855.34;4952063;29;20047;-78
2021/06/14 02:36:33;;;;;;;6.65;3.42;;;;;;;16.77;63.42;101848.63;4944380;29;20123;-80
2021/06/14 02:39:01;;;;;;;7.55;3.42;;;;;;;16.84;63.37;101851.84;4953950;29;20068;-82
2021/06/14 02:41:28;;;;;;;5.75;3.35;;;;;;;16.88;63.31;101839.38;4945512;29;20103;-80
2021/06/14 02:43:55;;;;;;;5.68;3.22;;;;;;;16.90;63.29;101840.16;4936218;29;20063;-80
2021/06/14 02:46:21;;;;;;;7.75;3.42;;;;;;;16.88;63.23;101819.13;4937758;29;20044;-83
2021/06/14 02:48:50;;;;;;;5.90;3.78;;;;;;;17.00;63.19;101837.97;4942134;29;20052;-83
2021/06/14 02:51:19;;;;;;;7.13;3.17;;;;;;;16.83;64.27;101830.81;4932928;29;20052;-85
2021/06/14 02:54:03;;;;;;;6.28;3.70;;;;;;;16.75;64.37;101831.19;4927095;29;20040;-81
2021/06/14 02:56:31;;;;;;;6.70;3.50;;;;;;;16.54;65.04;101825.97;4942545;29;20048;-81
2021/06/14 02:58:57;;;;;;;5.82;3.42;;;;;;;16.40;65.55;101823.09;4928665;29;20040;-83
2021/06/14 03:01:23;;;;;;;8.30;3.95;;;;;;;16.35;65.76;101835.63;4925377;29;20111;-83
2021/06/14 03:03:52;;;;;;;5.10;3.58;;;;;;;16.30;66.13;101841.09;4938810;29;20059;-80
2021/06/14 03:06:19;;;;;;;6.38;3.92;;;;;;;16.22;66.31;101836.16;4937019;29;20054;-84
2021/06/14 03:08:46;;;;;;;6.72;3.50;;;;;;;16.21;66.56;101837.09;4944033;29;20048;-81
2021/06/14 03:11:13;;;;;;;8.93;3.83;;;;;;;16.07;66.40;101816.59;4928795;29;20043;-83
2021/06/14 03:13:44;;;;;;;6.72;3.83;;;;;;;16.10;66.64;101821.75;4925034;29;20052;-81
2021/06/14 03:16:13;;;;;;;4.57;3.22;;;;;;;16.03;66.57;101814.16;4924460;29;20068;-83
2021/06/14 03:18:43;;;;;;;9.07;3.80;;;;;;;16.02;66.83;101821.22;4933716;29;20055;-81
2021/06/14 03:21:10;;;;;;;5.82;3.40;;;;;;;16.03;66.22;101832.59;4926703;29;20043;-84
2021/06/14 03:23:36;;;;;;;5.45;3.05;;;;;;;16.07;65.80;101821.03;4927237;29;20055;-83
2021/06/14 03:26:04;;;;;;;5.97;3.42;;;;;;;16.03;65.92;101822.94;4929009;29;20068;-84
2021/06/14 03:28:31;;;;;;;4.53;3.05;;;;;;;16.03;65.92;101815.03;4922002;29;20044;-83
2021/06/14 03:30:57;;;;;;;4.90;3.00;;;;;;;15.99;66.10;101816.94;4924135;29;20067;-83
2021/06/14 03:33:24;;;;;;;6.75;3.25;;;;;;;16.02;66.04;101809.84;4920889;29;20052;-84
2021/06/14 03:35:53;;;;;;;6.45;3.35;;;;;;;16.00;65.87;101809.88;4922029;29;20056;-80
2021/06/14 03:38:20;;;;;;;5.25;3.08;;;;;;;16.06;65.78;101811.41;4935779;29;20497;-78
2021/06/14 03:40:46;;;;;;;7.88;3.15;;;;;;;15.98;65.57;101796.78;4927744;29;20043;-80
2021/06/14 03:43:12;;;;;;;7.65;3.20;;;;;;;15.57;65.44;101738.00;4926854;29;20076;-80
2021/06/14 03:45:38;;;;;;;5.38;2.85;;;;;;;15.98;65.44;101812.59;4921039;29;20056;-82
2021/06/14 03:48:05;;;;;;;6.65;4.03;;;;;;;16.05;65.42;101813.19;4928849;29;20044;-82
2021/06/14 03:50:31;;;;;;;6.38;3.05;;;;;;;16.11;65.27;101822.59;4941518;29;20515;-83
2021/06/14 03:52:57;;;;;;;4.03;3.13;;;;;;;16.02;65.56;101823.00;4935823;29;20056;-84
2021/06/14 03:55:23;;;;;;;6.00;3.30;;;;;;;16.07;65.13;101828.91;4928300;29;20055;-84
2021/06/14 03:57:49;;;;;;;6.45;3.40;;;;;;;16.04;65.42;101822.00;4927050;29;20067;-82
2021/06/14 04:00:16;;;;;;;6.13;3.30;;;;;;;16.11;65.34;101826.09;4924403;29;20052;-83
2021/06/14 04:02:42;;;;;;;5.68;3.22;;;;;;;16.16;65.19;101821.47;4929247;29;20048;-85
2021/06/14 04:05:10;;;;;;;5.38;3.15;;;;;;;16.21;65.20;101828.31;4928504;29;20169;-85
2021/06/14 04:07:36;;;;;;;5.57;3.30;;;;;;;16.05;65.02;101805.28;4935480;29;20048;-84
2021/06/14 04:10:07;;;;;;;6.05;3.08;;;;;;;16.21;65.10;101833.56;4925844;29;20565;-84
2021/06/14 04:12:33;;;;;;;7.03;3.13;;;;;;;16.20;64.85;101830.09;4936569;29;20044;-82
2021/06/14 04:14:59;;;;;;;6.43;3.17;;;;;;;16.16;64.86;101839.91;4937041;29;20080;-82
2021/06/14 04:17:28;;;;;;;5.63;3.10;;;;;;;16.11;64.49;101831.34;4913445;29;20067;-85
2021/06/14 04:19:54;;;;;;;4.53;3.10;;;;;;;16.25;64.55;101857.09;4940326;29;20389;-85
2021/06/14 04:22:20;;;;;;;5.50;2.80;;;;;;;16.29;64.45;101858.66;4925649;29;20044;-83
2021/06/14 04:24:46;;;;;;;3.88;2.75;;;;;;;16.31;64.41;101864.72;4929571;29;20047;-85
2021/06/14 04:27:12;;;;;;;5.50;3.05;;;;;;;16.33;64.63;101857.63;4940528;29;20055;-84
2021/06/14 04:29:38;;;;;;;5.85;3.25;;;;;;;16.41;64.39;101869.59;4923860;29;20115;-85
2021/06/14 04:32:07;;;;;;;5.28;3.25;;;;;;;16.49;64.02;101864.84;4935315;29;20524;-84
2021/06/14 04:34:33;;;;;;;7.05;3.08;;;;;;;16.53;64.02;101862.91;4933051;29;20058;-84
2021/06/14 04:37:01;;;;;;;5.72;2.90;;;;;;;16.60;63.85;101867.84;4947706;29;20051;-85
2021/06/14 04:39:27;;;;;;;5.93;3.25;;;;;;;16.68;63.41;101861.38;4958723;29;20063;-81
2021/06/14 04:41:55;;;;;;;6.88;4.15;;;;;;;16.73;63.13;101869.94;4943103;29;20416;-83
2021/06/14 04:44:24;;;;;;;6.65;3.20;;;;;;;16.71;63.01;101858.59;4929359;29;20458;-85
2021/06/14 04:46:50;;;;;;;5.63;3.15;;;;;;;16.76;62.59;101861.88;4944511;29;20076;-82
2021/06/14 04:49:16;;;;;;;5.50;3.42;;;;;;;16.90;62.93;101872.63;4947271;29;20048;-85
2021/06/14 04:51:42;;;;;;;8.40;3.95;;;;;;;16.97;62.78;101881.19;4926061;29;20119;-85
2021/06/14 04:54:08;;;;;;;6.15;3.03;;;;;;;17.01;62.48;101874.81;4929866;29;20133;-85
2021/06/14 04:56:34;;;;;;;5.47;3.47;;;;;;;17.03;62.21;101875.63;4927295;29;20048;-85
2021/06/14 04:59:01;;;;;;;5.90;3.60;;;;;;;17.52;60.80;101874.22;4939729;29;20063;-86
2021/06/14 05:01:27;;;;;;;6.68;3.00;;;;;;;18.10;58.92;101861.69;4932169;29;20087;-83
2021/06/14 05:03:55;;;;;;;6.30;3.40;;;;;;;18.61;57.79;101867.81;4925061;29;20048;-86
2021/06/14 05:06:22;;;;;;;6.65;3.38;;;;;;;18.79;57.07;101865.13;4932209;29;20110;-84
2021/06/14 05:08:48;;;;;;;7.75;3.67;;;;;;;18.71;56.96;101844.34;4947709;29;20488;-82
2021/06/14 05:11:13;;;;;;;7.47;3.42;;;;;;;19.23;55.73;101848.59;4939566;29;20043;-84
2021/06/14 05:13:39;;;;;;;10.77;3.97;;;;;;;19.59;54.61;101858.03;4944523;29;20052;-79
2021/06/14 05:16:05;;;;;;;6.93;3.55;;;;;;;19.98;54.08;101851.34;4940708;29;20107;-79
2021/06/14 05:18:31;;;;;;;6.78;3.03;;;;;;;20.19;53.43;101851.00;4952838;29;20134;-82
2021/06/14 05:20:58;;;;;;;5.32;3.42;;;;;;;19.72;54.35;101862.59;4919830;29;20048;-83
2021/06/14 05:23:24;;;;;;;8.82;3.60;;;;;;;19.25;55.76;101874.97;4940557;29;20051;-76
2021/06/14 05:25:50;;;;;;;7.03;4.20;;;;;;;18.83;57.17;101869.28;4940875;29;20075;-79
2021/06/14 05:28:17;;;;;;;7.45;3.78;;;;;;;18.68;57.89;101873.63;4941841;29;20028;-78
2021/06/14 05:30:43;;;;;;;10.52;3.80;;;;;;;18.56;58.47;101867.19;4951154;29;20043;-80
2021/06/14 05:33:10;;;;;;;6.13;3.47;;;;;;;18.51;58.79;101874.53;4953323;29;20090;-83
2021/06/14 05:35:36;;;;;;;10.07;4.20;;;;;;;18.47;59.07;101886.19;4956813;29;20047;-78
2021/06/14 05:38:02;;;;;;;7.63;4.07;;;;;;;18.53;58.77;101886.72;4940187;29;20055;-80
2021/06/14 05:40:28;;;;;;;7.97;4.63;;;;;;;18.42;58.70;101890.88;4940031;29;20075;-84
2021/06/14 05:42:54;;;;;;;6.88;4.65;;;;;;;18.47;58.65;101902.91;4950219;29;20055;-85
2021/06/14 05:45:21;;;;;;;8.40;4.38;;;;;;;18.52;58.76;101906.16;4956229;29;20058;-85
2021/06/14 05:47:47;;;;;;;9.32;4.65;;;;;;;18.51;59.15;101898.31;4953863;29;20046;-85
2021/06/14 05:50:13;;;;;;;8.88;4.95;;;;;;;18.44;59.38;101889.00;4935175;29;20043;-84
2021/06/14 05:52:40;;;;;;;7.18;4.60;;;;;;;18.20;59.60;101869.06;4925557;29;20056;-85
2021/06/14 05:55:07;;;;;;;8.02;4.18;;;;;;;18.39;59.23;101892.75;4919833;29;20457;-84
2021/06/14 05:57:34;;;;;;;8.27;4.72;;;;;;;18.62;58.95;101910.97;4925260;29;20180;-82
2021/06/14 06:00:00;;;;;;;9.40;4.45;;;;;;;18.54;58.29;101877.88;4926770;29;20056;-84
2021/06/14 06:02:27;;;;;;;7.35;3.88;;;;;;;18.59;57.92;101885.56;4937748;29;20044;-85
2021/06/14 06:04:54;;;;;;;7.65;4.18;;;;;;;18.70;58.15;101900.84;4954628;29;20064;-86
2021/06/14 06:07:21;;;;;;;7.85;3.80;;;;;;;18.71;57.48;101889.31;4944039;29;20493;-82
2021/06/14 06:09:47;;;;;;;5.85;3.80;;;;;;;18.76;57.70;101883.78;4928241;29;20405;-84
2021/06/14 06:12:13;;;;;;;8.20;4.43;;;;;;;18.71;57.68;101882.25;4954571;29;20043;-85
2021/06/14 06:14:56;;;;;;;9.65;3.95;;;;;;;18.70;58.09;101892.91;4944438;29;20048;-82
2021/06/14 06:17:24;;;;;;;7.03;4.10;;;;;;;18.78;57.94;101890.69;4944343;29;20078;-85
2021/06/14 06:19:50;;;;;;;6.18;3.50;;;;;;;18.91;57.59;101882.09;4944035;29;20043;-84
2021/06/14 06:22:17;;;;;;;8.25;4.07;;;;;;;19.00;57.64;101889.56;4930698;29;20469;-84
2021/06/14 06:24:44;;;;;;;10.85;4.05;;;;;;;19.02;57.19;101887.69;4929148;29;20142;-85
2021/06/14 06:27:11;;;;;;;8.80;4.25;;;;;;;18.88;57.09;101886.63;4935946;29;20091;-84
2021/06/14 06:29:38;;;;;;;8.75;3.95;;;;;;;18.96;57.68;101888.03;4924037;29;20059;-85
2021/06/14 06:32:05;;;;;;;6.57;3.58;;;;;;;18.93;57.98;101896.13;4913519;29;20067;-86
2021/06/14 06:34:31;;;;;;;7.75;4.05;;;;;;;19.09;57.62;101891.72;4925595;29;20048;-85
2021/06/14 06:36:57;;;;;;;7.60;4.05;;;;;;;19.12;57.58;101888.88;4922444;29;20052;-86
2021/06/14 06:39:28;;;;;;;8.05;4.60;;;;;;;19.21;57.25;101882.22;4915195;29;20048;-86
2021/06/14 06:41:56;;;;;;;7.57;4.22;;;;;;;19.32;56.77;101868.38;4937683;29;20043;-86
2021/06/14 06:44:25;;;;;;;13.32;4.28;;;;;;;19.18;56.67;101877.13;4947243;29;20054;-86
2021/06/14 06:46:51;;;;;;;9.27;4.38;;;;;;;19.31;56.83;101885.22;4934097;29;20493;-87
2021/06/14 06:49:17;;;;;;;9.75;4.00;;;;;;;19.38;56.80;101878.63;4925280;29;20043;-87
2021/06/14 06:51:43;;;;;;;7.60;3.88;;;;;;;19.45;55.80;101877.34;4937041;29;20055;-85
2021/06/14 06:54:11;;;;;;;8.00;4.18;;;;;;;19.51;55.73;101858.44;4934515;29;20201;-86
2021/06/14 06:56:42;;;;;;;5.13;3.85;;;;;;;19.62;55.15;101852.53;4964570;23;20056;-85
2021/06/14 06:59:09;;;;;;;8.23;3.95;;;;;;;19.73;54.87;101865.16;4926762;29;20040;-83
2021/06/14 07:01:37;;;;;;;7.30;3.67;;;;;;;19.74;55.23;101869.53;4947020;29;20055;-85
2021/06/14 07:04:06;;;;;;;8.82;4.10;;;;;;;19.93;55.31;101857.88;4937885;29;20147;-80
2021/06/14 07:06:35;;;;;;;6.80;3.53;;;;;;;19.95;54.62;101858.63;4916674;29;20039;-86
2021/06/14 07:09:01;;;;;;;10.52;4.43;;;;;;;19.74;54.43;101856.28;4927680;29;20051;-85
2021/06/14 07:11:28;;;;;;;8.40;3.35;;;;;;;19.73;54.12;101864.31;4946778;29;20236;-85
2021/06/14 07:13:57;;;;;;;7.53;3.33;;;;;;;19.71;54.10;101856.44;4944699;29;20513;-85
2021/06/14 07:16:25;;;;;;;7.75;3.42;;;;;;;19.75;53.63;101860.63;4938771;29;20051;-84
2021/06/14 07:18:54;;;;;;;6.90;2.83;;;;;;;19.87;52.45;101859.06;4924832;29;20056;-84
2021/06/14 07:21:27;;;;;;;7.10;2.80;;;;;;;19.95;51.78;101842.75;4953083;29;20056;-81
2021/06/14 07:23:54;;;;;;;7.55;2.72;;;;;;;20.06;51.90;101850.88;4942669;29;20048;-82
2021/06/14 07:26:26;;;;;;;11.18;2.83;;;;;;;20.05;51.52;101845.69;4953099;29;20055;-84
2021/06/14 07:28:53;;;;;;;6.95;2.80;;;;;;;20.13;51.17;101838.13;4942711;29;20048;-84
2021/06/14 07:31:19;;;;;;;6.55;2.85;;;;;;;20.36;50.88;101849.97;4929057;29;20072;-86
2021/06/14 07:33:49;;;;;;;8.50;2.78;;;;;;;20.37;50.47;101805.75;4915751;29;20052;-86
2021/06/14 07:36:17;;;;;;;10.07;3.00;;;;;;;20.64;50.76;101835.84;4930086;29;20044;-82
2021/06/14 07:38:43;;;;;;;8.88;2.80;;;;;;;20.73;51.25;101844.22;4929375;29;20533;-84
2021/06/14 07:41:15;;;;;;;5.70;2.70;;;;;;;20.93;50.52;101832.31;4943085;29;20127;-84
2021/06/14 07:43:42;;;;;;;6.07;2.20;;;;;;;20.97;49.39;101835.63;4919227;29;20080;-85
2021/06/14 07:46:08;;;;;;;4.50;2.42;;;;;;;21.01;49.75;101831.84;4940342;29;20048;-83
2021/06/14 07:48:35;;;;;;;6.75;2.42;;;;;;;20.98;49.44;101843.50;4934752;29;20481;-83
2021/06/14 07:51:04;;;;;;;5.47;2.20;;;;;;;21.04;49.05;101843.09;4935916;29;20064;-81
2021/06/14 07:53:31;;;;;;;5.13;2.35;;;;;;;20.85;50.06;101831.94;4919269;29;20048;-84
2021/06/14 07:55:58;;;;;;;8.60;2.65;;;;;;;20.89;50.33;101829.00;4942886;29;20055;-84
2021/06/14 07:58:26;;;;;;;5.18;2.35;;;;;;;21.09;50.30;101825.09;4956280;29;20062;-80
2021/06/14 08:00:54;;;;;;;7.10;2.53;;;;;;;20.99;50.41;101812.50;4937030;29;20048;-85
2021/06/14 08:03:23;;;;;;;7.55;2.67;;;;;;;21.27;50.29;101833.63;4941377;29;20051;-84
2021/06/14 08:05:50;;;;;;;5.53;2.58;;;;;;;21.39;50.13;101828.47;4954487;29;20162;-84
2021/06/14 08:08:16;;;;;;;5.60;2.33;;;;;;;21.32;50.29;101816.56;4939958;29;20049;-83
2021/06/14 08:10:45;;;;;;;8.20;2.75;;;;;;;21.35;50.44;101821.66;4949235;29;20058;-80
2021/06/14 08:13:11;;;;;;;5.40;2.55;;;;;;;21.61;49.92;101816.47;4980052;29;20044;-84
2021/06/14 08:15:38;;;;;;;4.47;2.35;;;;;;;21.69;49.75;101808.81;4980479;29;20043;-81
2021/06/14 08:18:24;;;;;;;4.45;2.38;;;;;;;21.59;49.74;101808.56;4980351;28;20040;-78
2021/06/14 08:26:11;;;;;;;7.68;2.50;;;;;;;21.76;48.97;101815.41;4949766;29;20075;-81
2021/06/14 08:28:37;;;;;;;8.82;2.20;;;;;;;21.82;48.10;101768.97;4945186;29;20059;-82
2021/06/14 08:31:04;;;;;;;3.80;1.60;;;;;;;21.81;47.88;101786.69;4943610;29;20048;-83
2021/06/14 08:33:32;;;;;;;3.08;1.55;;;;;;;22.24;47.72;101828.09;4925479;29;20382;-84
2021/06/14 08:35:58;;;;;;;2.92;1.52;;;;;;;21.69;48.35;101798.16;4943222;29;20062;-83
2021/06/14 08:38:24;;;;;;;5.53;1.90;;;;;;;21.65;48.66;101834.72;4941139;29;20058;-80
2021/06/14 08:40:51;;;;;;;4.13;1.80;;;;;;;21.68;48.99;101831.88;4921989;29;20044;-82
2021/06/14 08:43:21;;;;;;;2.35;1.50;;;;;;;21.88;48.30;101833.16;4924124;29;20075;-76
2021/06/14 08:45:48;;;;;;;3.33;2.05;;;;;;;21.95;48.79;101843.38;4933144;29;20055;-76
2021/06/14 08:48:15;;;;;;;4.28;1.90;;;;;;;22.00;49.38;101836.81;4936257;29;20046;-81
2021/06/14 08:50:41;;;;;;;5.18;2.10;;;;;;;22.07;49.83;101821.28;4937430;29;20048;-77
2021/06/14 08:53:08;;;;;;;4.35;2.30;;;;;;;22.19;49.55;101836.41;4944552;29;20076;-80
2021/06/14 08:55:35;;;;;;;4.45;2.25;;;;;;;22.47;48.87;101847.78;4950318;29;20136;-80
2021/06/14 08:58:03;;;;;;;4.93;2.17;;;;;;;22.44;48.35;101850.66;4946086;29;20047;-76
2021/06/14 09:00:30;;;;;;;6.38;2.30;;;;;;;22.47;47.67;101853.13;4931631;29;20052;-81
2021/06/14 09:02:57;;;;;;;4.97;2.45;;;;;;;22.52;47.77;101850.97;4924382;29;20059;-79
2021/06/14 09:05:24;;;;;;;6.55;2.60;;;;;;;22.22;48.31;101864.59;4937092;29;20059;-81
2021/06/14 09:07:56;;;;;;;3.65;1.90;;;;;;;22.13;48.88;101867.88;4929589;29;20118;-82
2021/06/14 09:10:37;;;;;;;4.45;1.83;;;;;;;22.25;48.51;101871.50;4932722;29;20067;-82
2021/06/14 09:13:26;;;;;;;4.15;1.73;;;;;;;22.39;47.78;101863.44;4913893;29;20135;-81
2021/06/14 09:16:15;;;;;;;2.90;1.80;;;;;;;22.51;47.63;101859.91;4926948;29;20112;-81
2021/06/14 09:18:45;;;;;;;5.68;1.88;;;;;;;22.63;47.77;101863.53;4920894;29;20084;-82
2021/06/14 09:21:29;;;;;;;4.93;2.17;;;;;;;22.61;47.86;101856.63;4923310;29;20502;-84
2021/06/14 09:24:01;;;;;;;4.28;2.25;;;;;;;22.72;48.22;101854.03;4939532;29;20075;-82
2021/06/14 09:26:40;;;;;;;4.95;2.28;;;;;;;22.76;47.68;101842.19;4942283;29;20131;-83
2021/06/14 09:29:14;;;;;;;4.20;2.08;;;;;;;22.87;47.61;101854.72;4923048;29;20493;-81
2021/06/14 09:31:48;;;;;;;4.95;2.38;;;;;;;23.06;47.33;101856.91;4919157;29;20051;-84
2021/06/14 09:34:18;;;;;;;5.78;2.70;;;;;;;22.94;47.89;101848.00;4924037;29;20461;-83
2021/06/14 09:37:10;;;;;;;5.45;2.80;;;;;;;22.91;48.27;101848.25;4931684;29;20115;-84
2021/06/14 09:39:40;;;;;;;5.32;2.47;;;;;;;22.97;48.23;101841.59;4948082;29;20052;-81
2021/06/14 09:42:23;;;;;;;5.72;2.70;;;;;;;22.93;48.73;101845.47;4937455;29;20048;-77
2021/06/14 09:44:53;;;;;;;5.68;2.65;;;;;;;23.05;48.08;101835.72;4938626;29;20047;-82
2021/06/14 09:47:23;;;;;;;6.63;3.65;;;;;;;23.03;48.47;101822.50;4940644;29;20076;-82
2021/06/14 09:50:01;;;;;;;5.82;3.20;;;;;;;23.22;48.34;101848.69;4926806;29;20073;-82
2021/06/14 09:52:28;;;;;;;6.32;2.90;;;;;;;23.29;48.36;101841.94;4941385;29;20639;-81
2021/06/14 09:55:17;;;;;;;4.43;2.55;;;;;;;23.47;48.25;101846.84;4922158;29;20049;-81
2021/06/14 09:57:44;;;;;;;7.10;3.05;;;;;;;23.28;48.94;101848.22;4925243;29;20493;-82
2021/06/14 10:00:14;;;;;;;9.95;3.53;;;;;;;22.93;48.73;101758.44;4939934;29;20043;-84
2021/06/14 10:02:41;;;;;;;6.18;3.15;;;;;;;23.39;48.14;101830.56;4925915;29;20044;-84
2021/06/14 10:05:21;;;;;;;6.60;3.40;;;;;;;23.29;48.66;101847.25;4942527;29;20043;-85
2021/06/14 10:07:55;;;;;;;7.93;3.53;;;;;;;23.14;48.97;101843.03;4932144;29;20063;-82
2021/06/14 10:10:25;;;;;;;7.15;3.20;;;;;;;23.27;48.31;101849.19;4923475;29;20048;-81
2021/06/14 10:12:54;;;;;;;5.22;2.78;;;;;;;23.58;48.25;101838.91;4944243;29;20055;-84
2021/06/14 10:15:30;;;;;;;6.55;3.13;;;;;;;23.26;48.19;101835.97;4946338;29;20051;-79
2021/06/14 10:17:56;;;;;;;5.22;3.30;;;;;;;23.26;48.39;101822.66;4929516;29;20048;-85
2021/06/14 10:20:28;;;;;;;4.68;2.63;;;;;;;23.23;48.43;101810.44;4920438;29;20462;-82
2021/06/14 10:22:58;;;;;;;6.25;3.20;;;;;;;23.66;47.90;101835.66;4938726;29;20059;-84
2021/06/14 10:25:25;;;;;;;4.75;2.22;;;;;;;23.76;47.66;101839.31;4936150;29;20048;-81
2021/06/14 10:27:53;;;;;;;4.65;2.42;;;;;;;23.69;47.76;101831.91;4922892;29;20059;-84
2021/06/14 10:30:22;;;;;;;5.95;2.85;;;;;;;23.81;47.67;101834.50;4924307;29;20480;-84
2021/06/14 10:32:50;;;;;;;5.15;2.63;;;;;;;24.18;46.69;101833.50;4924224;29;20047;-84
2021/06/14 10:35:20;;;;;;;4.88;2.45;;;;;;;24.20;46.51;101828.88;4919759;29;20513;-84
2021/06/14 10:37:53;;;;;;;5.20;3.03;;;;;;;23.99;46.88;101828.72;4911075;29;20059;-81
2021/06/14 10:40:25;;;;;;;5.40;2.50;;;;;;;24.07;47.00;101826.31;4930588;29;20116;-82
2021/06/14 10:42:52;;;;;;;6.13;2.45;;;;;;;24.30;46.40;101815.66;4935157;29;20139;-83
2021/06/14 10:45:30;;;;;;;4.53;2.70;;;;;;;24.24;46.49;101821.47;4928756;29;20053;-77
2021/06/14 10:48:02;;;;;;;4.07;2.30;;;;;;;24.34;46.08;101826.94;4927019;29;20047;-82
2021/06/14 10:50:41;;;;;;;5.75;2.88;;;;;;;24.11;46.43;101814.44;4926621;29;20059;-82
2021/06/14 10:53:22;;;;;;;5.95;2.70;;;;;;;24.13;47.03;101817.84;4930927;29;20413;-84
2021/06/14 10:55:56;;;;;;;5.60;2.55;;;;;;;24.48;46.29;101812.50;4947261;29;20070;-84
2021/06/14 10:58:32;;;;;;;3.80;2.40;;;;;;;24.43;45.90;101807.53;4948779;29;20048;-81
2021/06/14 11:01:05;;;;;;;5.00;2.45;;;;;;;24.56;45.71;101812.72;4930201;29;20054;-81
2021/06/14 11:03:46;;;;;;;3.65;2.38;;;;;;;24.71;45.20;101803.50;4945204;29;20063;-83
2021/06/14 11:06:19;;;;;;;5.38;3.22;;;;;;;24.84;45.48;101813.19;4942381;29;20146;-83
2021/06/14 11:09:18;;;;;;;7.53;2.90;;;;;;;24.57;45.58;101817.94;4917816;29;20047;-86
2021/06/14 11:11:54;;;;;;;4.72;2.60;;;;;;;24.34;45.84;101827.78;4937902;29;20047;-79
2021/06/14 11:14:43;;;;;;;5.93;2.92;;;;;;;24.65;45.28;101824.50;4927685;29;20104;-78
2021/06/14 11:17:26;;;;;;;4.57;2.50;;;;;;;24.67;45.31;101823.44;4926080;29;20048;-77
2021/06/14 11:20:10;;;;;;;5.43;2.83;;;;;;;24.62;45.74;101826.44;4900552;29;20043;-82
2021/06/14 11:22:40;;;;;;;5.45;3.10;;;;;;;24.53;45.99;101823.66;4947113;29;20305;-81
2021/06/14 11:25:30;;;;;;;6.60;3.20;;;;;;;24.80;45.35;101811.75;4927152;29;20048;-80
2021/06/14 11:28:03;;;;;;;5.63;2.88;;;;;;;25.20;44.33;101813.81;4925608;29;20067;-81
2021/06/14 11:30:35;;;;;;;6.03;3.00;;;;;;;25.20;44.39;101803.97;4927577;29;20060;-85
2021/06/14 11:33:04;;;;;;;5.95;3.22;;;;;;;25.26;44.11;101818.66;4928391;29;20048;-78
2021/06/14 11:35:33;;;;;;;4.22;2.90;;;;;;;25.11;44.59;101818.09;4920500;29;20599;-76
2021/06/14 11:38:05;;;;;;;5.13;2.60;;;;;;;25.14;44.78;101809.81;4955230;29;20059;-78
2021/06/14 11:40:56;;;;;;;5.63;2.90;;;;;;;25.58;44.23;101812.44;4959420;29;20051;-78